RJTY

Yokota Air Base

Airport
ICAO code
RJTY
IATA Code
OKO
Summary
ICAO Region
APAC
ICAO Territory
Location

Fussa, Kantō

Serving
Yokota
Elevation
463 ft
Coordinates
35° 44' 55" N , 139° 20' 55" E
KCC
Metar
Observation
RJTY 301055Z 36013G21KT 10SM CLR 03/M09 A2992 RMK AO2A SLP140 T00341086 $
Station
Yokota Ab
Date/Time
2023-01-30 10:55:00
Wind direction
360°
Wind speed
13 kts
Lowest cloud amount
n/a
Temperature
3.4°C
Dew point
-8.6°C
Humidity
40%
Weather condition
n/a

Yokota Air Base is a United States Air Force base in the city of Fussa, in the Western Tokyo area, Japan.

Climatology

Humid Sub-tropical climate (Köppen climate classification Cfa)

Runways

Designator Length Width Surface Rops
18/36 3353 61 CON Yes/Yes

Airport map

Aerial View

SKYbrary Partners:

Safety knowledge contributed by: